TimeEDT,TemperatureF,Dew PointF,Humidity,Sea Level PressureIn,VisibilityMPH,Wind Direction,Wind SpeedMPH,Gust SpeedMPH,PrecipitationIn,Events,Conditions,WindDirDegrees,DateUTC
12:04 AM,73.4,73.4,100,30.03,10.0,Calm,Calm,-,N/A,,Mostly Cloudy,0,2013-07-14 04:04:00
8:58 AM,75.4,75.4,100,30.09,10.0,NNE,2.3,-,N/A,,Mostly Cloudy,20,2013-07-14 12:58:00
9:13 AM,75.2,75.2,100,30.08,10.0,Calm,Calm,-,N/A,,Mostly Cloudy,0,2013-07-14 13:13:00
9:15 AM,75.2,75.2,100,30.08,10.0,NE,2.3,-,N/A,Rain,Light Rain,40,2013-07-14 13:15:00
9:25 AM,75.2,75.2,100,30.08,2.5,Calm,Calm,-,N/A,Rain,Heavy Rain,0,2013-07-14 13:25:00
9:30 AM,75.2,75.2,100,30.09,2.0,SSE,6.9,-,N/A,Rain,Rain,150,2013-07-14 13:30:00
9:35 AM,75.2,75.2,100,30.09,1.5,SSE,2.3,-,N/A,Rain,Heavy Rain,150,2013-07-14 13:35:00
9:45 AM,75.2,75.2,100,30.10,4.0,ESE,2.3,-,N/A,Rain,Light Rain,110,2013-07-14 13:45:00
9:58 AM,75.2,75.2,100,30.11,6.0,Calm,Calm,-,0.22,Rain,Light Rain,0,2013-07-14 13:58:00
10:04 AM,75.2,75.2,100,30.10,10.0,ENE,3.5,-,N/A,,Overcast,60,2013-07-14 14:04:00
10:09 AM,75.2,75.2,100,30.10,10.0,ENE,5.8,-,N/A,,Overcast,70,2013-07-14 14:09:00
10:19 AM,75.2,75.2,100,30.10,10.0,NE,6.9,-,N/A,,Overcast,50,2013-07-14 14:19:00
10:23 AM,75.2,75.2,100,30.10,10.0,NE,4.6,-,N/A,Rain,Light Rain,40,2013-07-14 14:23:00
10:53 AM,75.2,75.2,100,30.11,10.0,ENE,5.8,-,N/A,,Light Drizzle,60,2013-07-14 14:53:00
10:56 AM,75.2,75.2,100,30.11,10.0,ENE,4.6,-,N/A,,Overcast,60,2013-07-14 14:56:00
10:58 AM,75.2,75.2,100,30.12,10.0,ENE,3.5,-,0.03,,Overcast,70,2013-07-14 14:58:00
11:08 AM,77.0,77.0,100,30.12,10.0,East,3.5,-,N/A,,Overcast,90,2013-07-14 15:08:00
11:18 AM,77.0,77.0,100,30.12,10.0,Calm,Calm,-,N/A,,Mostly Cloudy,0,2013-07-14 15:18:00
12:08 PM,78.8,78.8,100,30.13,10.0,ENE,4.6,-,N/A,,Overcast,70,2013-07-14 16:08:00
12:13 PM,78.8,78.8,100,30.12,10.0,NE,2.3,-,N/A,,Overcast,50,2013-07-14 16:13:00
12:16 PM,78.8,78.8,100,30.12,10.0,Calm,Calm,-,N/A,Rain,Light Rain,0,2013-07-14 16:16:00
12:41 PM,78.8,78.8,100,30.13,10.0,ENE,3.5,-,N/A,,Light Drizzle,70,2013-07-14 16:41:00
12:48 PM,78.8,78.8,100,30.13,10.0,ENE,4.6,-,N/A,,Overcast,70,2013-07-14 16:48:00
1:03 PM,78.8,78.8,100,30.13,10.0,NE,8.1,-,N/A,,Mostly Cloudy,50,2013-07-14 17:03:00
1:08 PM,78.8,78.8,100,30.13,10.0,NE,9.2,-,N/A,,Overcast,40,2013-07-14 17:08:00
1:18 PM,78.8,77.0,94,30.13,10.0,NE,9.2,-,N/A,,Mostly Cloudy,50,2013-07-14 17:18:00
1:21 PM,78.8,77.0,94,30.14,9.0,NE,6.9,-,N/A,Rain,Light Rain,50,2013-07-14 17:21:00
1:31 PM,78.8,77.0,94,30.14,8.0,East,6.9,-,N/A,Rain,Light Rain,80,2013-07-14 17:31:00
1:33 PM,78.8,77.0,94,30.14,9.0,ENE,6.9,-,N/A,,Overcast,60,2013-07-14 17:33:00
1:58 PM,80.4,78.1,93,30.14,10.0,NE,6.9,-,0.00,,Mostly Cloudy,50,2013-07-14 17:58:00
2:15 PM,80.6,78.8,94,30.13,6.0,East,13.8,-,N/A,Rain,Light Rain,90,2013-07-14 18:15:00
2:20 PM,80.6,77.0,89,30.13,1.8,ENE,3.5,-,N/A,Rain,Heavy Rain,60,2013-07-14 18:20:00
2:30 PM,78.8,78.8,100,30.13,6.0,ENE,6.9,-,N/A,Rain,Light Rain,70,2013-07-14 18:30:00
2:36 PM,78.8,78.8,100,30.13,10.0,ENE,8.1,-,N/A,,Mostly Cloudy,70,2013-07-14 18:36:00
2:41 PM,80.6,80.6,100,30.13,10.0,East,8.1,-,N/A,,Mostly Cloudy,80,2013-07-14 18:41:00
2:57 PM,80.6,78.8,94,30.12,10.0,East,15.0,-,N/A,Rain,Light Rain,100,2013-07-14 18:57:00
2:58 PM,80.6,78.8,94,30.13,10.0,East,16.1,-,0.10,Rain,Light Rain,100,2013-07-14 18:58:00
3:16 PM,78.8,77.0,94,30.12,10.0,ESE,12.7,26.5,N/A,,Mostly Cloudy,110,2013-07-14 19:16:00
4:06 PM,82.4,77.0,84,30.12,10.0,East,15.0,20.7,N/A,,Mostly Cloudy,100,2013-07-14 20:06:00
4:16 PM,80.6,77.0,89,30.12,10.0,ESE,13.8,24.2,N/A,,Mostly Cloudy,110,2013-07-14 20:16:00
4:26 PM,78.8,77.0,94,30.12,10.0,ESE,12.7,-,N/A,,Mostly Cloudy,110,2013-07-14 20:26:00
4:56 PM,82.4,77.0,84,30.11,10.0,ESE,15.0,-,N/A,,Mostly Cloudy,110,2013-07-14 20:56:00
4:59 PM,82.4,77.0,84,30.12,10.0,ESE,13.8,-,N/A,,Mostly Cloudy,120,2013-07-14 20:59:00
5:14 PM,82.4,77.0,84,30.11,10.0,ESE,9.2,-,N/A,,Scattered Clouds,120,2013-07-14 21:14:00
5:34 PM,82.4,77.0,84,30.12,10.0,East,10.4,19.6,N/A,,Mostly Cloudy,100,2013-07-14 21:34:00
6:00 PM,82.4,75.2,79,30.11,10.0,East,12.7,19.6,N/A,,Mostly Cloudy,90,2013-07-14 22:00:00
6:10 PM,80.6,75.2,84,30.10,10.0,East,13.8,-,N/A,,Mostly Cloudy,100,2013-07-14 22:10:00
6:30 PM,82.4,75.2,79,30.10,10.0,East,12.7,-,N/A,Rain,Light Rain,100,2013-07-14 22:30:00
6:40 PM,82.4,75.2,79,30.10,10.0,East,13.8,19.6,N/A,,Clear,100,2013-07-14 22:40:00
7:59 PM,79.7,74.8,85,30.13,10.0,East,8.1,-,N/A,,Clear,100,2013-07-14 23:59:00
8:35 PM,77.0,75.2,94,30.14,10.0,East,6.9,-,N/A,Rain,Light Rain,90,2013-07-15 00:35:00
8:55 PM,77.0,75.2,94,30.14,10.0,East,6.9,-,N/A,,Partly Cloudy,90,2013-07-15 00:55:00
9:01 PM,77.0,75.2,94,30.15,10.0,East,5.8,-,N/A,Rain,Light Rain,90,2013-07-15 01:01:00
9:07 PM,77.0,75.2,94,30.15,10.0,East,5.8,-,N/A,,Clear,80,2013-07-15 01:07:00
10:58 PM,-9999,-9999,N/A,-9999,-9999.0,NE,4.6,-,N/A,,Unknown,40,2013-07-15 02:58:00